In Rescue
 
Open Full Screen Window  High Contrast Mode
August 20, 2019 8:06 AM CDT
Weather Information
Wind Direction
  ---
Wind Speed
  00 kt (0 mph)
Wind Gust
  00 kt (0 mph)
Altimeter
29.98 in
Visibility
10 SM
Temperature
16° C
61° F
Dewpoint
16° C
61° F
Humidity
100%
1hr Rain Fall
00.00 in.
24hr Rain Fall
00.00 in.
Sky Condition
Scattered @ 300 ft
VFR

METAR KONA 201306Z AUTO 00000KT 10SM SCT003 16/16 A2998 RMK AO2

FAA Disclaimer: The data displayed is for advisory purposes only and is not to be used for flight planning or operations.